Date,TemperatureHighF,TemperatureAvgF,TemperatureLowF,DewpointHighF,DewpointAvgF,DewpointLowF,HumidityHigh,HumidityAvg,HumidityLow,PressureMaxIn,PressureMinIn,WindSpeedMaxMPH,WindSpeedAvgMPH,GustSpeedMaxMPH,PrecipitationSumIn
2013-11-1,65.9,58.8,51.8,63.1,49.6,44.8,94,73,51,29.77,29.47,31,6,31,0.01
2013-11-2,58.6,49.9,43.6,44.9,41.7,36.8,88,74,51,30.12,29.76,19,4,19,0.01
2013-11-3,54.4,45.1,35.0,42.1,37.2,32.6,92,75,54,30.36,30.11,11,2,11,0.00
2013-11-4,63.7,50.8,40.0,44.9,39.6,34.8,82,67,44,30.40,30.30,19,3,19,0.02
2013-11-5,64.8,55.5,48.2,43.8,41.3,38.6,79,60,40,30.42,30.23,12,2,12,0.02
2013-11-6,71.7,59.5,49.1,60.1,51.9,40.2,94,77,61,30.23,29.99,27,6,27,0.03
2013-11-7,51.2,44.0,36.9,47.7,34.6,26.7,93,71,44,30.29,30.02,20,5,20,0.01
2013-11-8,52.9,41.1,29.8,34.5,29.9,27.0,90,67,38,30.42,30.28,14,2,14,0.05
2013-11-9,62.2,47.3,30.3,34.9,31.2,26.4,87,57,31,30.28,30.12,25,6,25,0.03
2013-11-10,54.2,46.3,32.1,39.8,32.1,26.9,83,59,36,30.36,30.18,16,4,16,0.04
2013-11-11,63.7,47.4,29.5,43.3,28.7,20.1,89,55,20,30.33,30.12,22,3,22,0.53
2013-11-12,48.6,33.3,25.5,43.6,24.3,15.8,94,71,45,30.66,30.18,24,8,24,0.01
2013-11-13,41.7,30.0,19.5,25.7,20.9,16.3,89,71,43,30.71,30.46,10,1,10,0.00
2013-11-14,54.5,38.4,24.6,26.3,22.0,18.8,83,56,26,30.46,30.22,19,4,19,0.00
2013-11-15,56.3,44.3,31.2,44.6,33.5,20.9,91,67,44,30.23,30.12,15,2,19,0.04
2013-11-16,62.0,54.2,44.2,56.1,50.8,42.6,96,88,79,30.16,29.93,17,4,17,0.00
2013-11-17,66.5,62.0,53.5,63.8,57.3,43.3,95,85,57,29.94,29.61,23,7,23,1.03
2013-11-18,56.2,48.9,39.9,44.8,37.0,28.3,86,65,40,30.21,29.84,21,5,21,0.00
2013-11-19,43.2,36.7,30.4,31.5,28.5,25.7,83,72,60,30.34,30.21,17,4,17,0.00
2013-11-20,56.1,41.1,28.6,36.1,30.2,24.8,86,67,44,30.33,30.22,15,3,15,0.00
2013-11-21,62.0,51.0,39.3,51.4,42.4,31.3,86,72,65,30.33,30.19,17,2,17,0.00
2013-11-22,56.9,54.0,47.1,55.5,52.0,44.3,95,93,86,30.28,30.18,22,4,22,0.27
2013-11-23,37.9,28.8,23.2,21.5,16.5,12.3,67,60,49,30.58,30.41,23,10,23,0.00
2013-11-24,29.1,23.7,17.7,15.4,12.6,10.4,76,63,48,30.73,30.55,18,3,18,0.00
2013-11-25,43.2,32.6,22.4,31.3,19.7,14.0,93,61,37,30.56,30.22,17,4,17,0.00
2013-11-26,35.2,33.5,31.5,33.8,32.0,29.2,95,94,91,30.24,29.93,10,3,12,0.13
2013-11-27,32.3,28.2,20.6,29.6,23.6,15.1,91,83,74,30.36,29.95,12,6,17,0.00
2013-11-28,38.2,26.3,15.6,23.7,18.0,12.5,88,72,48,30.51,30.35,9,3,16,0.00
2013-11-29,43.7,31.1,18.8,28.3,23.2,15.8,89,74,53,30.66,30.50,4,1,7,0.00
2013-11-30,54.4,39.1,26.8,33.5,27.7,22.8,86,66,43,30.53,30.23,11,3,14,0.00